sensor_id;sensor_type;location;lat;lon;timestamp;temperature;humidity
827;DHT22;395;48.132;11.608;2023-05-10T00:01:38;15.90;24.50
827;DHT22;395;48.132;11.608;2023-05-10T00:04:03;15.90;24.50
827;DHT22;395;48.132;11.608;2023-05-10T00:06:29;15.90;24.70
827;DHT22;395;48.132;11.608;2023-05-10T00:08:55;15.90;25.10
827;DHT22;395;48.132;11.608;2023-05-10T00:11:21;15.90;24.90
827;DHT22;395;48.132;11.608;2023-05-10T00:13:46;15.90;24.80
827;DHT22;395;48.132;11.608;2023-05-10T00:16:12;15.90;24.60
827;DHT22;395;48.132;11.608;2023-05-10T00:18:39;15.90;24.70
827;DHT22;395;48.132;11.608;2023-05-10T00:21:05;15.90;24.70
827;DHT22;395;48.132;11.608;2023-05-10T00:23:30;15.90;24.50
827;DHT22;395;48.132;11.608;2023-05-10T00:25:56;15.90;24.60
827;DHT22;395;48.132;11.608;2023-05-10T00:28:22;15.90;24.70
827;DHT22;395;48.132;11.608;2023-05-10T00:30:47;15.90;24.40
827;DHT22;395;48.132;11.608;2023-05-10T00:33:13;15.90;24.70
827;DHT22;395;48.132;11.608;2023-05-10T00:35:39;15.90;25.10
827;DHT22;395;48.132;11.608;2023-05-10T00:38:04;15.90;24.90
827;DHT22;395;48.132;11.608;2023-05-10T00:40:30;15.90;24.80
827;DHT22;395;48.132;11.608;2023-05-10T00:42:56;15.90;24.20
827;DHT22;395;48.132;11.608;2023-05-10T00:45:23;15.90;23.90
827;DHT22;395;48.132;11.608;2023-05-10T00:47:48;15.80;22.70
827;DHT22;395;48.132;11.608;2023-05-10T00:50:15;15.80;23.00
827;DHT22;395;48.132;11.608;2023-05-10T00:52:41;15.80;23.40
827;DHT22;395;48.132;11.608;2023-05-10T00:55:08;15.80;23.60
827;DHT22;395;48.132;11.608;2023-05-10T00:57:35;15.80;23.80
827;DHT22;395;48.132;11.608;2023-05-10T01:00:01;15.80;24.30
827;DHT22;395;48.132;11.608;2023-05-10T01:02:27;15.80;23.90
827;DHT22;395;48.132;11.608;2023-05-10T01:04:53;15.80;23.20
827;DHT22;395;48.132;11.608;2023-05-10T01:07:19;15.70;22.90
827;DHT22;395;48.132;11.608;2023-05-10T01:09:45;15.80;23.20
827;DHT22;395;48.132;11.608;2023-05-10T01:12:11;15.80;23.80
827;DHT22;395;48.132;11.608;2023-05-10T01:14:37;15.80;24.20
827;DHT22;395;48.132;11.608;2023-05-10T01:17:04;15.80;24.20
827;DHT22;395;48.132;11.608;2023-05-10T01:19:31;15.80;24.70
827;DHT22;395;48.132;11.608;2023-05-10T01:27:40;15.80;23.50
827;DHT22;395;48.132;11.608;2023-05-10T01:36:11;15.70;22.80
827;DHT22;395;48.132;11.608;2023-05-10T01:38:47;15.70;22.60
827;DHT22;395;48.132;11.608;2023-05-10T01:41:25;15.70;22.60
827;DHT22;395;48.132;11.608;2023-05-10T01:46:41;15.70;22.10
827;DHT22;395;48.132;11.608;2023-05-10T01:49:09;15.70;22.10
827;DHT22;395;48.132;11.608;2023-05-10T01:51:50;15.60;22.10
827;DHT22;395;48.132;11.608;2023-05-10T01:54:19;15.60;22.30
827;DHT22;395;48.132;11.608;2023-05-10T01:56:48;15.60;22.50
827;DHT22;395;48.132;11.608;2023-05-10T01:59:18;15.60;22.80
827;DHT22;395;48.132;11.608;2023-05-10T02:01:46;15.60;23.10
827;DHT22;395;48.132;11.608;2023-05-10T02:04:16;15.60;23.50
827;DHT22;395;48.132;11.608;2023-05-10T02:06:43;15.60;23.70
827;DHT22;395;48.132;11.608;2023-05-10T02:09:11;15.60;23.60
827;DHT22;395;48.132;11.608;2023-05-10T02:11:39;15.60;23.60
827;DHT22;395;48.132;11.608;2023-05-10T02:14:09;15.70;23.80
827;DHT22;395;48.132;11.608;2023-05-10T02:16:38;15.70;24.10
827;DHT22;395;48.132;11.608;2023-05-10T02:19:05;15.70;24.20
827;DHT22;395;48.132;11.608;2023-05-10T02:21:32;15.70;23.80
827;DHT22;395;48.132;11.608;2023-05-10T02:24:00;15.70;23.80
827;DHT22;395;48.132;11.608;2023-05-10T02:26:26;15.70;23.60
827;DHT22;395;48.132;11.608;2023-05-10T02:28:52;15.70;23.90
827;DHT22;395;48.132;11.608;2023-05-10T02:31:19;15.70;24.00
827;DHT22;395;48.132;11.608;2023-05-10T02:33:46;15.70;24.00
827;DHT22;395;48.132;11.608;2023-05-10T02:36:12;15.60;24.20
827;DHT22;395;48.132;11.608;2023-05-10T02:38:39;15.70;24.30
827;DHT22;395;48.132;11.608;2023-05-10T02:41:05;15.60;23.90
827;DHT22;395;48.132;11.608;2023-05-10T02:43:33;15.60;24.10
827;DHT22;395;48.132;11.608;2023-05-10T02:45:59;15.70;24.40
827;DHT22;395;48.132;11.608;2023-05-10T02:48:25;15.60;24.10
827;DHT22;395;48.132;11.608;2023-05-10T02:50:52;15.60;24.10
827;DHT22;395;48.132;11.608;2023-05-10T02:53:23;15.60;24.20
827;DHT22;395;48.132;11.608;2023-05-10T02:55:52;15.60;24.50
827;DHT22;395;48.132;11.608;2023-05-10T02:58:20;15.60;24.60
827;DHT22;395;48.132;11.608;2023-05-10T03:00:46;15.60;24.70
827;DHT22;395;48.132;11.608;2023-05-10T03:03:12;15.60;24.60
827;DHT22;395;48.132;11.608;2023-05-10T03:05:38;15.60;25.00
827;DHT22;395;48.132;11.608;2023-05-10T03:08:03;15.60;25.00
827;DHT22;395;48.132;11.608;2023-05-10T03:10:31;15.60;25.20
827;DHT22;395;48.132;11.608;2023-05-10T03:13:16;15.60;24.90
827;DHT22;395;48.132;11.608;2023-05-10T03:16:12;15.60;24.10
827;DHT22;395;48.132;11.608;2023-05-10T03:18:56;15.60;23.50
827;DHT22;395;48.132;11.608;2023-05-10T03:21:29;15.60;24.20
827;DHT22;395;48.132;11.608;2023-05-10T03:24:08;15.60;24.10
827;DHT22;395;48.132;11.608;2023-05-10T03:26:37;15.60;23.50
827;DHT22;395;48.132;11.608;2023-05-10T03:29:05;15.50;23.30
827;DHT22;395;48.132;11.608;2023-05-10T03:31:31;15.50;23.20
827;DHT22;395;48.132;11.608;2023-05-10T03:33:57;15.50;23.50
827;DHT22;395;48.132;11.608;2023-05-10T03:36:23;15.50;23.90
827;DHT22;395;48.132;11.608;2023-05-10T03:38:49;15.50;24.00
827;DHT22;395;48.132;11.608;2023-05-10T03:41:14;15.50;23.90
827;DHT22;395;48.132;11.608;2023-05-10T03:43:40;15.50;23.80
827;DHT22;395;48.132;11.608;2023-05-10T03:46:06;15.50;24.00
827;DHT22;395;48.132;11.608;2023-05-10T03:48:33;15.50;23.70
827;DHT22;395;48.132;11.608;2023-05-10T03:50:58;15.50;23.40
827;DHT22;395;48.132;11.608;2023-05-10T03:53:24;15.50;23.20
827;DHT22;395;48.132;11.608;2023-05-10T03:55:50;15.50;23.10
827;DHT22;395;48.132;11.608;2023-05-10T03:58:15;15.50;23.20
827;DHT22;395;48.132;11.608;2023-05-10T04:00:41;15.50;23.50
827;DHT22;395;48.132;11.608;2023-05-10T04:03:09;15.50;23.60
827;DHT22;395;48.132;11.608;2023-05-10T04:05:35;15.50;23.20
827;DHT22;395;48.132;11.608;2023-05-10T04:08:01;15.50;23.20
827;DHT22;395;48.132;11.608;2023-05-10T04:10:27;15.40;22.90
827;DHT22;395;48.132;11.608;2023-05-10T04:12:53;15.40;22.70
827;DHT22;395;48.132;11.608;2023-05-10T04:15:19;15.40;23.40
827;DHT22;395;48.132;11.608;2023-05-10T04:17:44;15.40;23.70
827;DHT22;395;48.132;11.608;2023-05-10T04:20:11;15.40;23.90
827;DHT22;395;48.132;11.608;2023-05-10T04:22:36;15.40;23.90
827;DHT22;395;48.132;11.608;2023-05-10T04:25:02;15.40;23.80
827;DHT22;395;48.132;11.608;2023-05-10T04:27:28;15.40;24.00
827;DHT22;395;48.132;11.608;2023-05-10T04:29:53;15.40;24.20
827;DHT22;395;48.132;11.608;2023-05-10T04:32:19;15.40;24.10
827;DHT22;395;48.132;11.608;2023-05-10T04:34:45;15.40;23.70
827;DHT22;395;48.132;11.608;2023-05-10T04:37:11;15.40;23.50
827;DHT22;395;48.132;11.608;2023-05-10T04:39:37;15.30;23.70
827;DHT22;395;48.132;11.608;2023-05-10T04:42:03;15.30;23.40
827;DHT22;395;48.132;11.608;2023-05-10T04:44:31;15.30;23.60
827;DHT22;395;48.132;11.608;2023-05-10T04:46:57;15.30;24.00
827;DHT22;395;48.132;11.608;2023-05-10T04:49:22;15.30;24.30
827;DHT22;395;48.132;11.608;2023-05-10T04:51:48;15.30;24.30
827;DHT22;395;48.132;11.608;2023-05-10T04:54:14;15.30;23.70
827;DHT22;395;48.132;11.608;2023-05-10T04:56:39;15.30;23.50
827;DHT22;395;48.132;11.608;2023-05-10T04:59:06;15.30;23.50
827;DHT22;395;48.132;11.608;2023-05-10T05:01:32;15.20;22.60
827;DHT22;395;48.132;11.608;2023-05-10T05:03:58;15.20;23.30
827;DHT22;395;48.132;11.608;2023-05-10T05:06:23;15.20;23.60
827;DHT22;395;48.132;11.608;2023-05-10T05:08:50;15.10;23.80
827;DHT22;395;48.132;11.608;2023-05-10T05:11:16;15.10;23.50
827;DHT22;395;48.132;11.608;2023-05-10T05:13:42;15.10;22.60
827;DHT22;395;48.132;11.608;2023-05-10T05:16:08;15.00;21.60
827;DHT22;395;48.132;11.608;2023-05-10T05:18:34;14.90;21.50
827;DHT22;395;48.132;11.608;2023-05-10T05:21:00;14.80;22.40
827;DHT22;395;48.132;11.608;2023-05-10T05:23:26;14.70;22.60
827;DHT22;395;48.132;11.608;2023-05-10T05:25:52;14.70;23.10
827;DHT22;395;48.132;11.608;2023-05-10T05:28:19;14.70;23.80
827;DHT22;395;48.132;11.608;2023-05-10T05:30:45;14.60;24.40
827;DHT22;395;48.132;11.608;2023-05-10T05:33:13;14.50;24.80
827;DHT22;395;48.132;11.608;2023-05-10T05:35:39;14.50;25.40
827;DHT22;395;48.132;11.608;2023-05-10T05:38:04;14.50;26.30
827;DHT22;395;48.132;11.608;2023-05-10T05:40:30;14.50;25.40
827;DHT22;395;48.132;11.608;2023-05-10T05:42:56;14.40;25.50
827;DHT22;395;48.132;11.608;2023-05-10T05:45:21;14.30;25.70
827;DHT22;395;48.132;11.608;2023-05-10T05:47:47;14.20;25.70
827;DHT22;395;48.132;11.608;2023-05-10T05:50:13;14.10;26.30
827;DHT22;395;48.132;11.608;2023-05-10T05:52:39;14.00;25.10
827;DHT22;395;48.132;11.608;2023-05-10T05:55:05;14.00;25.60
827;DHT22;395;48.132;11.608;2023-05-10T05:57:30;14.00;26.10
827;DHT22;395;48.132;11.608;2023-05-10T05:59:56;14.00;26.40
827;DHT22;395;48.132;11.608;2023-05-10T06:02:22;14.10;26.90
827;DHT22;395;48.132;11.608;2023-05-10T06:04:48;14.10;26.90
827;DHT22;395;48.132;11.608;2023-05-10T06:07:13;14.20;26.80
827;DHT22;395;48.132;11.608;2023-05-10T06:09:39;14.20;26.50
827;DHT22;395;48.132;11.608;2023-05-10T06:12:05;14.30;26.30
827;DHT22;395;48.132;11.608;2023-05-10T06:14:30;14.30;25.40
827;DHT22;395;48.132;11.608;2023-05-10T06:16:56;14.40;25.20
827;DHT22;395;48.132;11.608;2023-05-10T06:19:21;14.30;24.30
827;DHT22;395;48.132;11.608;2023-05-10T06:21:47;14.30;23.90
827;DHT22;395;48.132;11.608;2023-05-10T06:24:13;14.40;23.50
827;DHT22;395;48.132;11.608;2023-05-10T06:26:38;14.40;23.40
827;DHT22;395;48.132;11.608;2023-05-10T06:29:04;14.40;23.20
827;DHT22;395;48.132;11.608;2023-05-10T06:31:29;14.40;23.50
827;DHT22;395;48.132;11.608;2023-05-10T06:33:55;14.50;24.80
827;DHT22;395;48.132;11.608;2023-05-10T06:36:21;14.50;24.20
827;DHT22;395;48.132;11.608;2023-05-10T06:38:47;14.40;22.80
827;DHT22;395;48.132;11.608;2023-05-10T06:41:13;14.40;23.50
827;DHT22;395;48.132;11.608;2023-05-10T06:43:38;14.40;23.60
827;DHT22;395;48.132;11.608;2023-05-10T06:46:06;14.40;24.40
827;DHT22;395;48.132;11.608;2023-05-10T06:48:32;14.40;24.70
827;DHT22;395;48.132;11.608;2023-05-10T06:50:58;14.50;25.10
827;DHT22;395;48.132;11.608;2023-05-10T06:53:24;14.60;25.70
827;DHT22;395;48.132;11.608;2023-05-10T06:55:49;14.70;24.90
827;DHT22;395;48.132;11.608;2023-05-10T06:58:15;14.80;24.70
827;DHT22;395;48.132;11.608;2023-05-10T07:00:41;14.80;23.40
827;DHT22;395;48.132;11.608;2023-05-10T07:03:11;14.90;23.70
827;DHT22;395;48.132;11.608;2023-05-10T07:05:37;14.90;21.50
827;DHT22;395;48.132;11.608;2023-05-10T07:08:03;15.00;21.60
827;DHT22;395;48.132;11.608;2023-05-10T07:10:29;15.00;20.00
827;DHT22;395;48.132;11.608;2023-05-10T07:12:55;15.00;19.90
827;DHT22;395;48.132;11.608;2023-05-10T07:15:20;15.10;20.20
827;DHT22;395;48.132;11.608;2023-05-10T07:17:46;15.10;20.30
827;DHT22;395;48.132;11.608;2023-05-10T07:20:12;15.00;19.10
827;DHT22;395;48.132;11.608;2023-05-10T07:22:38;15.00;18.90
827;DHT22;395;48.132;11.608;2023-05-10T07:25:04;14.90;18.80
827;DHT22;395;48.132;11.608;2023-05-10T07:27:30;14.90;18.00
827;DHT22;395;48.132;11.608;2023-05-10T07:29:55;14.90;17.60
827;DHT22;395;48.132;11.608;2023-05-10T07:32:21;14.90;17.00
827;DHT22;395;48.132;11.608;2023-05-10T07:34:47;14.90;17.50
827;DHT22;395;48.132;11.608;2023-05-10T07:37:13;15.00;18.00
827;DHT22;395;48.132;11.608;2023-05-10T07:39:39;15.10;17.40
827;DHT22;395;48.132;11.608;2023-05-10T07:42:05;15.10;15.20
827;DHT22;395;48.132;11.608;2023-05-10T07:44:31;15.10;14.40
827;DHT22;395;48.132;11.608;2023-05-10T07:46:56;15.10;14.70
827;DHT22;395;48.132;11.608;2023-05-10T07:49:22;15.20;14.50
827;DHT22;395;48.132;11.608;2023-05-10T07:51:49;15.20;14.50
827;DHT22;395;48.132;11.608;2023-05-10T07:54:15;15.30;14.50
827;DHT22;395;48.132;11.608;2023-05-10T07:56:41;15.40;13.00
827;DHT22;395;48.132;11.608;2023-05-10T07:59:15;15.40;10.40
827;DHT22;395;48.132;11.608;2023-05-10T08:01:42;15.40;10.50
827;DHT22;395;48.132;11.608;2023-05-10T08:04:08;15.50;10.60
827;DHT22;395;48.132;11.608;2023-05-10T08:06:34;15.50;9.20
827;DHT22;395;48.132;11.608;2023-05-10T08:09:00;15.60;10.00
827;DHT22;395;48.132;11.608;2023-05-10T08:11:26;15.60;8.40
827;DHT22;395;48.132;11.608;2023-05-10T08:13:53;15.60;7.50
827;DHT22;395;48.132;11.608;2023-05-10T08:16:19;15.70;7.40
827;DHT22;395;48.132;11.608;2023-05-10T08:18:46;15.80;6.30
827;DHT22;395;48.132;11.608;2023-05-10T08:21:12;15.70;4.90
827;DHT22;395;48.132;11.608;2023-05-10T08:23:38;15.80;6.20
827;DHT22;395;48.132;11.608;2023-05-10T08:26:04;15.90;6.20
827;DHT22;395;48.132;11.608;2023-05-10T08:28:30;15.90;6.10
827;DHT22;395;48.132;11.608;2023-05-10T08:30:56;15.90;2.90
827;DHT22;395;48.132;11.608;2023-05-10T08:33:22;15.90;3.10
827;DHT22;395;48.132;11.608;2023-05-10T08:35:48;15.90;2.20
827;DHT22;395;48.132;11.608;2023-05-10T08:38:14;15.80;2.30
827;DHT22;395;48.132;11.608;2023-05-10T08:40:42;15.90;2.10
827;DHT22;395;48.132;11.608;2023-05-10T08:43:10;15.90;2.60
827;DHT22;395;48.132;11.608;2023-05-10T08:45:38;15.90;3.20
827;DHT22;395;48.132;11.608;2023-05-10T08:48:06;15.90;2.90
827;DHT22;395;48.132;11.608;2023-05-10T08:50:37;15.80;2.70
827;DHT22;395;48.132;11.608;2023-05-10T08:53:12;15.80;3.70
827;DHT22;395;48.132;11.608;2023-05-10T08:55:39;15.80;3.30
827;DHT22;395;48.132;11.608;2023-05-10T08:58:06;15.70;3.40
827;DHT22;395;48.132;11.608;2023-05-10T09:00:32;15.60;3.40
827;DHT22;395;48.132;11.608;2023-05-10T09:02:58;15.60;3.40
827;DHT22;395;48.132;11.608;2023-05-10T09:05:24;15.60;3.70
827;DHT22;395;48.132;11.608;2023-05-10T09:07:49;15.50;4.20
827;DHT22;395;48.132;11.608;2023-05-10T09:10:16;15.50;4.50
827;DHT22;395;48.132;11.608;2023-05-10T09:12:41;15.50;5.40
827;DHT22;395;48.132;11.608;2023-05-10T09:15:09;15.60;5.90
827;DHT22;395;48.132;11.608;2023-05-10T09:17:35;15.60;6.10
827;DHT22;395;48.132;11.608;2023-05-10T09:20:04;15.70;7.40
827;DHT22;395;48.132;11.608;2023-05-10T09:22:31;15.70;8.00
827;DHT22;395;48.132;11.608;2023-05-10T09:25:06;15.70;8.00
827;DHT22;395;48.132;11.608;2023-05-10T09:27:33;15.80;6.40
827;DHT22;395;48.132;11.608;2023-05-10T09:29:58;15.80;3.40
827;DHT22;395;48.132;11.608;2023-05-10T09:32:45;15.90;3.60
827;DHT22;395;48.132;11.608;2023-05-10T09:35:13;15.90;3.20
827;DHT22;395;48.132;11.608;2023-05-10T09:37:40;16.00;3.20
827;DHT22;395;48.132;11.608;2023-05-10T09:40:13;15.90;1.50
827;DHT22;395;48.132;11.608;2023-05-10T09:43:02;15.90;1.00
827;DHT22;395;48.132;11.608;2023-05-10T09:45:28;15.90;1.00
827;DHT22;395;48.132;11.608;2023-05-10T09:47:55;16.10;1.00
827;DHT22;395;48.132;11.608;2023-05-10T09:50:21;16.10;1.00
827;DHT22;395;48.132;11.608;2023-05-10T09:55:13;16.20;1.80
827;DHT22;395;48.132;11.608;2023-05-10T09:57:39;16.40;1.00
827;DHT22;395;48.132;11.608;2023-05-10T10:00:05;16.40;1.00
827;DHT22;395;48.132;11.608;2023-05-10T10:02:31;16.50;1.00
827;DHT22;395;48.132;11.608;2023-05-10T10:04:58;16.70;1.00
827;DHT22;395;48.132;11.608;2023-05-10T10:07:25;16.80;1.00
827;DHT22;395;48.132;11.608;2023-05-10T10:09:51;16.80;1.00
827;DHT22;395;48.132;11.608;2023-05-10T10:12:18;16.90;1.00
827;DHT22;395;48.132;11.608;2023-05-10T10:14:48;16.90;1.00
827;DHT22;395;48.132;11.608;2023-05-10T10:17:16;16.90;1.00
827;DHT22;395;48.132;11.608;2023-05-10T10:19:41;17.00;1.00
827;DHT22;395;48.132;11.608;2023-05-10T10:22:07;17.00;1.00
827;DHT22;395;48.132;11.608;2023-05-10T10:24:36;16.90;1.00
827;DHT22;395;48.132;11.608;2023-05-10T10:27:12;17.00;1.00
827;DHT22;395;48.132;11.608;2023-05-10T10:35:34;16.90;1.00
827;DHT22;395;48.132;11.608;2023-05-10T10:38:00;17.00;1.00
827;DHT22;395;48.132;11.608;2023-05-10T10:40:31;17.00;1.00
827;DHT22;395;48.132;11.608;2023-05-10T10:42:57;17.00;1.00
827;DHT22;395;48.132;11.608;2023-05-10T10:45:24;17.10;1.00
827;DHT22;395;48.132;11.608;2023-05-10T10:48:20;17.30;1.00
827;DHT22;395;48.132;11.608;2023-05-10T10:50:47;17.30;1.00
827;DHT22;395;48.132;11.608;2023-05-10T10:53:12;17.40;1.00
827;DHT22;395;48.132;11.608;2023-05-10T10:55:48;17.50;1.00
827;DHT22;395;48.132;11.608;2023-05-10T10:58:33;17.50;1.00
827;DHT22;395;48.132;11.608;2023-05-10T11:01:17;17.50;1.00
827;DHT22;395;48.132;11.608;2023-05-10T11:06:34;17.40;1.00
827;DHT22;395;48.132;11.608;2023-05-10T11:09:07;17.30;1.00
827;DHT22;395;48.132;11.608;2023-05-10T11:11:34;17.30;1.00
827;DHT22;395;48.132;11.608;2023-05-10T11:14:05;17.30;1.00
827;DHT22;395;48.132;11.608;2023-05-10T11:16:44;17.40;1.00
827;DHT22;395;48.132;11.608;2023-05-10T11:19:12;17.40;1.00
827;DHT22;395;48.132;11.608;2023-05-10T11:21:51;17.40;1.00
827;DHT22;395;48.132;11.608;2023-05-10T11:24:36;17.30;1.00
827;DHT22;395;48.132;11.608;2023-05-10T11:27:02;17.30;1.00
827;DHT22;395;48.132;11.608;2023-05-10T11:29:28;17.20;1.00
827;DHT22;395;48.132;11.608;2023-05-10T11:31:57;17.20;1.70
827;DHT22;395;48.132;11.608;2023-05-10T11:34:27;17.10;2.60
827;DHT22;395;48.132;11.608;2023-05-10T11:36:55;17.10;3.30
827;DHT22;395;48.132;11.608;2023-05-10T11:39:21;17.10;3.80
827;DHT22;395;48.132;11.608;2023-05-10T11:41:50;17.00;4.00
827;DHT22;395;48.132;11.608;2023-05-10T11:44:16;16.90;4.20
827;DHT22;395;48.132;11.608;2023-05-10T11:46:42;16.80;4.40
827;DHT22;395;48.132;11.608;2023-05-10T11:49:07;16.50;3.90
827;DHT22;395;48.132;11.608;2023-05-10T11:51:35;16.30;4.90
827;DHT22;395;48.132;11.608;2023-05-10T11:54:05;16.20;6.70
827;DHT22;395;48.132;11.608;2023-05-10T11:56:32;16.00;8.20
827;DHT22;395;48.132;11.608;2023-05-10T11:58:58;15.90;10.00
827;DHT22;395;48.132;11.608;2023-05-10T12:01:26;15.80;11.20
827;DHT22;395;48.132;11.608;2023-05-10T12:03:54;15.80;12.50
827;DHT22;395;48.132;11.608;2023-05-10T12:06:20;15.80;13.10
827;DHT22;395;48.132;11.608;2023-05-10T12:08:47;15.70;13.50
827;DHT22;395;48.132;11.608;2023-05-10T12:11:13;15.70;12.00
827;DHT22;395;48.132;11.608;2023-05-10T12:13:42;15.50;10.60
827;DHT22;395;48.132;11.608;2023-05-10T12:16:19;15.40;8.20
827;DHT22;395;48.132;11.608;2023-05-10T12:18:48;15.40;8.50
827;DHT22;395;48.132;11.608;2023-05-10T12:21:15;15.30;9.10
827;DHT22;395;48.132;11.608;2023-05-10T12:23:41;15.20;8.90
827;DHT22;395;48.132;11.608;2023-05-10T12:26:09;15.20;9.80
827;DHT22;395;48.132;11.608;2023-05-10T12:28:35;15.20;10.30
827;DHT22;395;48.132;11.608;2023-05-10T12:31:01;15.20;10.50
827;DHT22;395;48.132;11.608;2023-05-10T12:33:35;15.20;10.80
827;DHT22;395;48.132;11.608;2023-05-10T12:36:02;15.20;10.70
827;DHT22;395;48.132;11.608;2023-05-10T12:38:39;15.10;11.30
827;DHT22;395;48.132;11.608;2023-05-10T12:41:06;15.10;11.70
827;DHT22;395;48.132;11.608;2023-05-10T12:43:33;15.10;12.20
827;DHT22;395;48.132;11.608;2023-05-10T12:46:05;15.10;12.50
827;DHT22;395;48.132;11.608;2023-05-10T12:48:30;15.10;12.80
827;DHT22;395;48.132;11.608;2023-05-10T12:50:56;15.10;12.90
827;DHT22;395;48.132;11.608;2023-05-10T12:53:22;15.20;12.80
827;DHT22;395;48.132;11.608;2023-05-10T12:55:48;15.20;12.70
827;DHT22;395;48.132;11.608;2023-05-10T12:58:13;15.20;13.00
827;DHT22;395;48.132;11.608;2023-05-10T13:00:39;15.20;13.20
827;DHT22;395;48.132;11.608;2023-05-10T13:03:05;15.30;13.40
827;DHT22;395;48.132;11.608;2023-05-10T13:05:32;15.30;13.20
827;DHT22;395;48.132;11.608;2023-05-10T13:07:58;15.30;12.70
827;DHT22;395;48.132;11.608;2023-05-10T13:10:24;15.30;13.00
827;DHT22;395;48.132;11.608;2023-05-10T13:12:50;15.30;13.10
827;DHT22;395;48.132;11.608;2023-05-10T13:15:16;15.40;13.00
827;DHT22;395;48.132;11.608;2023-05-10T13:17:42;15.40;13.40
827;DHT22;395;48.132;11.608;2023-05-10T13:20:08;15.50;13.50
827;DHT22;395;48.132;11.608;2023-05-10T13:22:35;15.50;13.40
827;DHT22;395;48.132;11.608;2023-05-10T13:25:01;15.50;13.50
827;DHT22;395;48.132;11.608;2023-05-10T13:27:27;15.60;14.20
827;DHT22;395;48.132;11.608;2023-05-10T13:29:52;15.60;14.80
827;DHT22;395;48.132;11.608;2023-05-10T13:32:18;15.60;14.80
827;DHT22;395;48.132;11.608;2023-05-10T13:34:44;15.70;14.80
827;DHT22;395;48.132;11.608;2023-05-10T13:37:10;15.70;14.90
827;DHT22;395;48.132;11.608;2023-05-10T13:39:36;15.80;14.90
827;DHT22;395;48.132;11.608;2023-05-10T13:42:03;15.80;14.90
827;DHT22;395;48.132;11.608;2023-05-10T13:44:29;15.80;14.90
827;DHT22;395;48.132;11.608;2023-05-10T13:46:56;15.80;14.30
827;DHT22;395;48.132;11.608;2023-05-10T13:49:21;15.80;13.70
827;DHT22;395;48.132;11.608;2023-05-10T13:51:47;15.80;13.10
827;DHT22;395;48.132;11.608;2023-05-10T13:54:13;15.80;13.10
827;DHT22;395;48.132;11.608;2023-05-10T13:56:40;15.80;13.20
827;DHT22;395;48.132;11.608;2023-05-10T13:59:06;15.80;13.70
827;DHT22;395;48.132;11.608;2023-05-10T14:01:33;15.80;13.90
827;DHT22;395;48.132;11.608;2023-05-10T14:03:59;15.80;14.20
827;DHT22;395;48.132;11.608;2023-05-10T14:06:25;15.80;14.70
827;DHT22;395;48.132;11.608;2023-05-10T14:08:52;15.80;14.90
827;DHT22;395;48.132;11.608;2023-05-10T14:11:19;15.80;14.20
827;DHT22;395;48.132;11.608;2023-05-10T14:13:45;15.80;13.70
827;DHT22;395;48.132;11.608;2023-05-10T14:16:11;15.70;13.60
827;DHT22;395;48.132;11.608;2023-05-10T14:18:37;15.70;13.20
827;DHT22;395;48.132;11.608;2023-05-10T14:21:03;15.70;13.60
827;DHT22;395;48.132;11.608;2023-05-10T14:23:29;15.70;13.50
827;DHT22;395;48.132;11.608;2023-05-10T14:25:55;15.70;12.40
827;DHT22;395;48.132;11.608;2023-05-10T14:28:21;15.70;12.40
827;DHT22;395;48.132;11.608;2023-05-10T14:30:47;15.80;13.80
827;DHT22;395;48.132;11.608;2023-05-10T14:33:13;15.80;14.20
827;DHT22;395;48.132;11.608;2023-05-10T14:35:39;15.80;14.90
827;DHT22;395;48.132;11.608;2023-05-10T14:38:05;15.80;14.90
827;DHT22;395;48.132;11.608;2023-05-10T14:40:30;15.80;14.70
827;DHT22;395;48.132;11.608;2023-05-10T14:42:56;15.80;13.10
827;DHT22;395;48.132;11.608;2023-05-10T14:45:22;15.80;12.90
827;DHT22;395;48.132;11.608;2023-05-10T14:47:48;15.80;12.00
827;DHT22;395;48.132;11.608;2023-05-10T14:50:14;15.70;11.20
827;DHT22;395;48.132;11.608;2023-05-10T14:52:42;15.60;11.10
827;DHT22;395;48.132;11.608;2023-05-10T14:55:08;15.50;11.00
827;DHT22;395;48.132;11.608;2023-05-10T14:57:34;15.40;11.80
827;DHT22;395;48.132;11.608;2023-05-10T14:59:59;15.30;10.90
827;DHT22;395;48.132;11.608;2023-05-10T15:02:25;15.10;10.60
827;DHT22;395;48.132;11.608;2023-05-10T15:04:50;15.00;11.60
827;DHT22;395;48.132;11.608;2023-05-10T15:07:16;14.90;11.60
827;DHT22;395;48.132;11.608;2023-05-10T15:09:46;14.90;12.40
827;DHT22;395;48.132;11.608;2023-05-10T15:12:12;14.70;13.20
827;DHT22;395;48.132;11.608;2023-05-10T15:14:37;14.80;14.30
827;DHT22;395;48.132;11.608;2023-05-10T15:17:05;14.70;14.20
827;DHT22;395;48.132;11.608;2023-05-10T15:19:31;14.70;14.20
827;DHT22;395;48.132;11.608;2023-05-10T15:21:58;14.70;14.20
827;DHT22;395;48.132;11.608;2023-05-10T15:24:24;14.70;14.20
827;DHT22;395;48.132;11.608;2023-05-10T15:26:50;14.70;14.20
827;DHT22;395;48.132;11.608;2023-05-10T15:29:16;14.70;14.20
827;DHT22;395;48.132;11.608;2023-05-10T15:31:49;14.70;14.00
827;DHT22;395;48.132;11.608;2023-05-10T15:34:15;14.70;14.20
827;DHT22;395;48.132;11.608;2023-05-10T15:36:41;14.80;15.10
827;DHT22;395;48.132;11.608;2023-05-10T15:39:07;14.70;14.90
827;DHT22;395;48.132;11.608;2023-05-10T15:41:34;14.80;15.60
827;DHT22;395;48.132;11.608;2023-05-10T15:44:00;14.80;15.90
827;DHT22;395;48.132;11.608;2023-05-10T15:46:27;14.80;16.40
827;DHT22;395;48.132;11.608;2023-05-10T15:48:53;14.80;17.30
827;DHT22;395;48.132;11.608;2023-05-10T15:51:18;14.80;16.50
827;DHT22;395;48.132;11.608;2023-05-10T15:53:44;14.70;16.10
827;DHT22;395;48.132;11.608;2023-05-10T15:56:10;14.70;15.90
827;DHT22;395;48.132;11.608;2023-05-10T15:58:37;14.70;16.20
827;DHT22;395;48.132;11.608;2023-05-10T16:01:03;14.70;15.40
827;DHT22;395;48.132;11.608;2023-05-10T16:03:30;14.60;14.10
827;DHT22;395;48.132;11.608;2023-05-10T16:05:56;14.50;14.00
827;DHT22;395;48.132;11.608;2023-05-10T16:08:22;14.30;14.40
827;DHT22;395;48.132;11.608;2023-05-10T16:10:49;14.20;15.30
827;DHT22;395;48.132;11.608;2023-05-10T16:13:17;14.10;16.20
827;DHT22;395;48.132;11.608;2023-05-10T16:15:42;14.00;16.80
827;DHT22;395;48.132;11.608;2023-05-10T16:18:08;14.00;17.90
827;DHT22;395;48.132;11.608;2023-05-10T16:20:34;14.00;18.50
827;DHT22;395;48.132;11.608;2023-05-10T16:23:05;14.00;18.80
827;DHT22;395;48.132;11.608;2023-05-10T16:25:31;13.90;17.80
827;DHT22;395;48.132;11.608;2023-05-10T16:27:58;13.90;18.10
827;DHT22;395;48.132;11.608;2023-05-10T16:30:23;13.90;18.50
827;DHT22;395;48.132;11.608;2023-05-10T16:32:52;13.90;18.60
827;DHT22;395;48.132;11.608;2023-05-10T16:35:17;13.90;18.90
827;DHT22;395;48.132;11.608;2023-05-10T16:37:43;13.90;18.50
827;DHT22;395;48.132;11.608;2023-05-10T16:40:09;14.00;18.60
827;DHT22;395;48.132;11.608;2023-05-10T16:42:35;13.90;18.50
827;DHT22;395;48.132;11.608;2023-05-10T16:45:01;14.00;18.40
827;DHT22;395;48.132;11.608;2023-05-10T16:47:32;14.00;18.70